Thunder radar more information blitzortung!


Radar de pluja more information rain snow radar


Visita la nostra xarxa de llocs de meteo:

Template documentation
and downloads

And another site



No particular awareness of the weather is required.    There are no Weather-warnings

Pagina Historial Weather Underground text

Diari Resum January 19, 2018 Unitats:  Imperial    Mètric   Tant
« Previous Dia
SegĂźent Dia »
Diari Setmana Mensual Anual Personalitzada
  Maxima: Minima: Media:
Temperatura: TemperatureC °F 3.3 °F 7.7 °F
Punt de rosada: DewpointC °F -1.8 °F 1.6 °F
Humitat: Humidity % 55 % 65 %
Wind Speed: WindSpeedKMH mph 0.0 mph 2.7 mph
RĂ fegues de vent: WindSpeedGustKMH mph - -
Vent:- - SSE
Pression baro: PressurehPa in 1016.8 in -
Precipitacions: 0.0 in    
Historical Graphs
 
 
Dades de taula per January 19, 2018
Temps Temperatura Punt de rosada Pression baro Vent Wind Speed RĂ fegues de vent Humitat Rainfall Rate (Hourly)
TemperatureC °F DewpointC °F PressurehPa in Calm     Humidity % HourlyPrecipMM in
00:00 4.0 °F -1.2 °F 1017.8 in Calm     69 % 0.0 in
00:04 5.7 °F -1.2 °F 1019.9 in SW 3.7 mph 3.7 mph 61 % 0.0 in
00:09 5.6 °F -1.3 °F 1019.9 in WSW 3.9 mph 3.9 mph 61 % 0.0 in
00:10 4.0 °F -1.2 °F 1017.8 in Calm   3.2 mph 69 % 0.0 in
00:14 5.6 °F -1.3 °F 1019.9 in Calm     61 % 0.0 in
00:19 5.5 °F -1.2 °F 1019.9 in Calm     62 % 0.0 in
00:20 4.0 °F -1.2 °F 1017.8 in WNW 3.2 mph 3.2 mph 69 % 0.0 in
00:24 5.6 °F -1.1 °F 1019.9 in WSW 2.3 mph 2.3 mph 62 % 0.0 in
00:29 5.6 °F -1.1 °F 1019.9 in NNE 2.3 mph   62 % 0.0 in
00:30 3.8 °F -1.6 °F 1017.8 in NW 3.2 mph 6.4 mph 68 % 0.0 in
00:34 5.5 °F -1.0 °F 1019.9 in Calm     63 % 0.0 in
00:39 5.5 °F -1.0 °F 1019.9 in WSW 1.9 mph   63 % 0.0 in
00:40 3.6 °F -1.6 °F 1017.8 in WNW 1.6 mph 1.6 mph 69 % 0.0 in
00:50 3.6 °F -1.8 °F 1017.8 in WNW 1.6 mph 3.2 mph 68 % 0.0 in
01:00 3.6 °F -1.6 °F 1017.8 in NW 1.6 mph 3.2 mph 69 % 0.0 in
01:10 3.4 °F -1.8 °F 1017.8 in Calm   3.2 mph 69 % 0.0 in
01:20 3.4 °F -1.8 °F 1017.8 in WSW 1.6 mph 4.8 mph 69 % 0.0 in
01:30 3.7 °F -1.4 °F 1017.8 in SW 3.2 mph 8.0 mph 69 % 0.0 in
01:40 3.7 °F -1.4 °F 1017.8 in NNW 3.2 mph 4.8 mph 69 % 0.0 in
02:00 3.7 °F -1.3 °F 1017.8 in North 3.2 mph 3.2 mph 70 % 0.0 in
02:10 3.5 °F -1.7 °F 1017.8 in NNE 1.6 mph 3.2 mph 69 % 0.0 in
02:20 3.4 °F -1.8 °F 1017.8 in West 1.6 mph 3.2 mph 69 % 0.0 in
02:30 3.3 °F -1.8 °F 1017.8 in WNW 3.2 mph 3.2 mph 69 % 0.0 in
02:40 3.5 °F -1.4 °F 1017.8 in Calm   1.6 mph 70 % 0.0 in
02:50 3.7 °F -1.3 °F 1018.8 in NNW 3.2 mph 4.8 mph 70 % 0.0 in
03:00 3.9 °F -1.1 °F 1018.8 in NNE 1.6 mph 3.2 mph 70 % 0.0 in
03:10 4.1 °F -0.9 °F 1018.8 in NE 1.6 mph 4.8 mph 70 % 0.0 in
03:20 4.2 °F -1.0 °F 1018.8 in Calm   3.2 mph 69 % 0.0 in
03:30 4.1 °F -1.1 °F 1018.8 in West 1.6 mph 3.2 mph 69 % 0.0 in
03:40 4.2 °F -0.8 °F 1018.8 in Calm   3.2 mph 70 % 0.0 in
03:50 4.5 °F -0.5 °F 1018.8 in Calm     70 % 0.0 in
04:00 4.8 °F -0.2 °F 1018.8 in NNW 1.6 mph 4.8 mph 70 % 0.0 in
04:10 5.1 °F 0.1 °F 1018.8 in Calm   3.2 mph 70 % 0.0 in
04:20 5.1 °F -0.1 °F 1018.8 in Calm   3.2 mph 69 % 0.0 in
04:30 5.3 °F 0.3 °F 1018.8 in NNW 1.6 mph 3.2 mph 70 % 0.0 in
04:40 5.7 °F 0.4 °F 1018.8 in Calm   1.6 mph 69 % 0.0 in
04:50 6.0 °F 0.7 °F 1018.8 in Calm   3.2 mph 69 % 0.0 in
10:58 6.2 °F 0.9 °F 1018.8 in WSW 1.9 mph   69 % 0.0 in
11:03 6.4 °F 1.1 °F 1018.8 in North 1.9 mph 1.9 mph 69 % 0.0 in
11:08 6.5 °F 1.2 °F 1018.8 in NW 1.9 mph 1.9 mph 69 % 0.0 in
11:13 6.6 °F 1.1 °F 1018.8 in NNE 3.7 mph 3.7 mph 68 % 0.0 in
11:18 6.7 °F 1.2 °F 1018.8 in NNE 3.5 mph 3.5 mph 68 % 0.0 in
11:23 6.8 °F 1.3 °F 1018.8 in NNE 1.4 mph   68 % 0.0 in
11:28 6.9 °F 1.2 °F 1018.8 in NE 1.9 mph   67 % 0.0 in
11:33 7.0 °F 1.3 °F 1018.8 in WNW 3.7 mph 3.7 mph 67 % 0.0 in
11:38 7.2 °F 1.5 °F 1018.8 in NE 2.3 mph 2.3 mph 67 % 0.0 in
11:43 7.3 °F 1.4 °F 1018.8 in NE 1.9 mph   66 % 0.0 in
11:48 7.2 °F 1.3 °F 1018.8 in NE 7.4 mph 7.4 mph 66 % 0.0 in
11:53 7.2 °F 1.3 °F 1018.8 in NE 7.4 mph 7.4 mph 66 % 0.0 in
11:58 7.0 °F 1.1 °F 1018.8 in NNE 9.3 mph 9.3 mph 66 % 0.0 in
12:03 7.1 °F 1.2 °F 1018.8 in ENE 3.2 mph 3.9 mph 66 % 0.0 in
12:08 7.3 °F 1.4 °F 1018.8 in NNE 3.7 mph 3.7 mph 66 % 0.0 in
12:13 7.4 °F 1.2 °F 1018.8 in NNE 6.9 mph 6.9 mph 65 % 0.0 in
12:18 7.4 °F 1.2 °F 1018.8 in NNE 3.7 mph 3.7 mph 65 % 0.0 in
12:23 7.4 °F 1.2 °F 1018.8 in NNE 3.7 mph 3.7 mph 65 % 0.0 in
12:28 7.5 °F 1.3 °F 1018.8 in WNW 2.3 mph 2.3 mph 65 % 0.0 in
12:33 7.6 °F 1.4 °F 1018.8 in NW 3.7 mph   65 % 0.0 in
12:38 7.8 °F 1.6 °F 1018.8 in WNW 1.9 mph   65 % 0.0 in
12:43 7.9 °F 1.7 °F 1018.8 in WNW 1.9 mph 1.9 mph 65 % 0.0 in
12:48 7.9 °F 1.5 °F 1017.8 in East 1.9 mph 1.9 mph 64 % 0.0 in
12:53 8.1 °F 1.9 °F 1017.8 in SW 2.3 mph 2.3 mph 65 % 0.0 in
12:58 8.2 °F 2.0 °F 1017.8 in North 3.7 mph   65 % 0.0 in
13:03 8.1 °F 1.7 °F 1017.8 in NE 3.9 mph 3.9 mph 64 % 0.0 in
13:08 8.1 °F 1.7 °F 1017.8 in WNW 3.7 mph 3.7 mph 64 % 0.0 in
13:13 8.2 °F 1.8 °F 1017.8 in ENE 3.7 mph 3.7 mph 64 % 0.0 in
13:18 8.3 °F 2.1 °F 1017.8 in NNE 1.9 mph 1.9 mph 65 % 0.0 in
13:23 8.2 °F 1.8 °F 1017.8 in ENE 3.7 mph 3.7 mph 64 % 0.0 in
13:28 8.1 °F 1.7 °F 1017.8 in NE 3.9 mph 3.9 mph 64 % 0.0 in
13:33 8.2 °F 1.8 °F 1017.8 in NNW 1.9 mph   64 % 0.0 in
13:38 8.4 °F 2.0 °F 1017.8 in ENE 3.7 mph 3.7 mph 64 % 0.0 in
13:43 8.7 °F 2.3 °F 1017.8 in ENE 3.7 mph 3.7 mph 64 % 0.0 in
13:48 8.9 °F 2.4 °F 1017.8 in West 5.6 mph 5.6 mph 64 % 0.0 in
13:53 9.2 °F 2.9 °F 1017.8 in NNW 3.7 mph 3.7 mph 65 % 0.0 in
13:58 9.4 °F 3.2 °F 1017.8 in WSW 4.7 mph 4.7 mph 65 % 0.0 in
14:03 9.6 °F 3.1 °F 1017.8 in West 3.7 mph 3.7 mph 64 % 0.0 in
14:08 9.9 °F 3.4 °F 1017.8 in SW 5.6 mph 5.6 mph 64 % 0.0 in
14:13 10.2 °F 3.7 °F 1017.8 in West 1.9 mph 1.9 mph 64 % 0.0 in
14:18 10.3 °F 3.6 °F 1017.8 in SW 3.7 mph 3.7 mph 63 % 0.0 in
14:23 10.4 °F 3.7 °F 1017.8 in WNW 2.3 mph 2.3 mph 63 % 0.0 in
14:28 10.4 °F 3.7 °F 1017.8 in East 5.6 mph 5.6 mph 63 % 0.0 in
14:33 10.5 °F 3.7 °F 1017.8 in ESE 6.1 mph 6.1 mph 63 % 0.0 in
14:38 10.5 °F 3.5 °F 1017.8 in ESE 5.6 mph 5.6 mph 62 % 0.0 in
14:43 10.6 °F 3.6 °F 1017.8 in SE 3.7 mph 3.9 mph 62 % 0.0 in
14:48 10.8 °F 3.6 °F 1017.8 in SSE 5.6 mph 5.6 mph 61 % 0.0 in
14:53 11.0 °F 4.0 °F 1017.8 in SE 3.7 mph 3.7 mph 62 % 0.0 in
14:58 11.2 °F 3.9 °F 1017.8 in ENE 1.9 mph 1.9 mph 61 % 0.0 in
15:03 11.3 °F 4.1 °F 1017.8 in ENE 3.7 mph 3.7 mph 61 % 0.0 in
15:08 11.4 °F 4.2 °F 1017.8 in ESE 3.7 mph 3.7 mph 61 % 0.0 in
15:13 11.4 °F 4.2 °F 1017.8 in ESE 5.6 mph 5.6 mph 61 % 0.0 in
15:18 11.4 °F 4.2 °F 1016.8 in ESE 5.6 mph 5.6 mph 61 % 0.0 in
15:23 11.6 °F 4.1 °F 1016.8 in ESE 5.6 mph 5.6 mph 60 % 0.0 in
15:28 11.7 °F 4.2 °F 1016.8 in ENE 3.7 mph 3.7 mph 60 % 0.0 in
15:33 11.8 °F 4.3 °F 1017.8 in ESE 7.4 mph 7.4 mph 60 % 0.0 in
15:38 11.9 °F 4.1 °F 1017.8 in ESE 7.4 mph 7.4 mph 59 % 0.0 in
15:43 11.9 °F 4.4 °F 1017.8 in NNE 3.7 mph 3.7 mph 60 % 0.0 in
15:48 12.0 °F 4.2 °F 1017.8 in ESE 5.6 mph 5.6 mph 59 % 0.0 in
15:53 12.1 °F 4.3 °F 1017.8 in ESE 5.6 mph 5.6 mph 59 % 0.0 in
15:58 12.2 °F 4.2 °F 1017.8 in ESE 5.6 mph 5.6 mph 58 % 0.0 in
16:03 12.2 °F 4.2 °F 1017.8 in ESE 5.0 mph 5.0 mph 58 % 0.0 in
16:08 12.3 °F 4.3 °F 1017.8 in ESE 7.4 mph 7.4 mph 58 % 0.0 in
16:13 12.2 °F 4.2 °F 1017.8 in ESE 7.4 mph 7.4 mph 58 % 0.0 in
16:18 12.2 °F 4.2 °F 1017.8 in ESE 9.3 mph 9.3 mph 58 % 0.0 in
16:23 12.2 °F 3.9 °F 1017.8 in East 7.4 mph 7.4 mph 57 % 0.0 in
16:28 12.2 °F 3.9 °F 1017.8 in ESE 4.7 mph 4.7 mph 57 % 0.0 in
16:33 12.2 °F 3.9 °F 1017.8 in East 5.6 mph 5.6 mph 57 % 0.0 in
16:38 12.3 °F 4.0 °F 1017.8 in ESE 4.7 mph 4.7 mph 57 % 0.0 in
16:43 12.3 °F 3.8 °F 1017.8 in East 5.6 mph 5.6 mph 56 % 0.0 in
16:48 12.2 °F 3.7 °F 1017.8 in East 7.4 mph 7.4 mph 56 % 0.0 in
16:53 12.2 °F 3.7 °F 1017.8 in ESE 5.6 mph 5.8 mph 56 % 0.0 in
16:58 12.2 °F 3.7 °F 1017.8 in SE 7.4 mph 7.4 mph 56 % 0.0 in
17:03 12.2 °F 3.4 °F 1017.8 in ESE 7.4 mph 7.4 mph 55 % 0.0 in
17:08 12.1 °F 3.3 °F 1017.8 in ESE 7.4 mph 7.4 mph 55 % 0.0 in
17:13 12.0 °F 3.2 °F 1017.8 in East 7.4 mph 7.4 mph 55 % 0.0 in
17:18 11.9 °F 3.1 °F 1017.8 in East 5.8 mph 5.8 mph 55 % 0.0 in
17:23 11.8 °F 3.1 °F 1017.8 in ESE 7.9 mph 7.9 mph 55 % 0.0 in
17:28 11.7 °F 2.9 °F 1017.8 in East 9.3 mph 9.3 mph 55 % 0.0 in
17:33 11.6 °F 2.8 °F 1017.8 in East 9.3 mph 9.3 mph 55 % 0.0 in
17:38 11.4 °F 2.9 °F 1017.8 in East 4.2 mph 4.2 mph 56 % 0.0 in
17:43 11.2 °F 2.7 °F 1017.8 in ESE 5.6 mph 5.6 mph 56 % 0.0 in
17:48 11.1 °F 2.7 °F 1017.8 in ENE 5.6 mph 5.6 mph 56 % 0.0 in
17:53 11.0 °F 2.8 °F 1017.8 in ESE 5.6 mph 5.6 mph 57 % 0.0 in
17:58 10.9 °F 2.7 °F 1017.8 in NE 3.7 mph 3.7 mph 57 % 0.0 in
18:03 10.8 °F 2.8 °F 1018.8 in North 3.7 mph 3.7 mph 58 % 0.0 in
18:08 10.7 °F 2.8 °F 1018.8 in NE 1.9 mph 2.3 mph 58 % 0.0 in
18:14 10.6 °F 2.7 °F 1018.8 in North 2.3 mph   58 % 0.0 in
18:19 10.4 °F 2.7 °F 1018.8 in NNE 1.9 mph 1.9 mph 59 % 0.0 in
18:24 10.2 °F 2.6 °F 1018.8 in NE 3.7 mph 3.7 mph 59 % 0.0 in
18:29 10.2 °F 2.6 °F 1018.8 in NNE 4.2 mph 4.2 mph 59 % 0.0 in
18:30 6.9 °F 2.0 °F 1019.9 in West 1.6 mph 3.2 mph 71 % 0.0 in
18:34 10.1 °F 2.7 °F 1018.8 in NNE 1.9 mph   60 % 0.0 in
18:39 10.0 °F 2.6 °F 1018.8 in NE 1.9 mph   60 % 0.0 in
18:40 7.0 °F 2.1 °F 1019.9 in Calm     71 % 0.0 in
18:44 10.0 °F 2.6 °F 1018.8 in ENE 1.9 mph   60 % 0.0 in
18:49 9.9 °F 2.7 °F 1018.8 in Calm     61 % 0.0 in
18:50 6.9 °F 2.0 °F 1020.9 in WNW 3.2 mph 3.2 mph 71 % 0.0 in
18:54 9.8 °F 2.6 °F 1018.8 in Calm     61 % 0.0 in
18:59 9.8 °F 2.6 °F 1018.8 in Calm     61 % 0.0 in
19:00 6.7 °F 1.8 °F 1020.9 in WSW 3.2 mph 4.8 mph 71 % 0.0 in
19:04 9.8 °F 2.6 °F 1018.8 in Calm     61 % 0.0 in
19:09 9.8 °F 2.6 °F 1018.8 in NE 2.6 mph 2.6 mph 61 % 0.0 in
19:10 6.7 °F 2.0 °F 1020.9 in West 3.2 mph 3.2 mph 72 % 0.0 in
19:14 9.8 °F 2.6 °F 1018.8 in Calm     61 % 0.0 in
19:19 9.7 °F 2.6 °F 1018.8 in Calm     61 % 0.0 in
19:20 6.8 °F 2.1 °F 1019.9 in Calm   1.6 mph 72 % 0.0 in
19:24 9.5 °F 2.3 °F 1018.8 in NNW 2.3 mph 2.3 mph 61 % 0.0 in
19:29 9.4 °F 2.5 °F 1018.8 in Calm     62 % 0.0 in
19:30 6.8 °F 2.1 °F 1019.9 in NW 1.6 mph   72 % 0.0 in
19:34 9.2 °F 2.3 °F 1018.8 in WNW 2.6 mph 2.6 mph 62 % 0.0 in
19:39 9.0 °F 2.1 °F 1018.8 in Calm     62 % 0.0 in
19:40 6.5 °F 1.8 °F 1019.9 in Calm   3.2 mph 72 % 0.0 in
19:44 8.9 °F 2.0 °F 1018.8 in WNW 1.9 mph 1.9 mph 62 % 0.0 in
19:49 8.7 °F 1.8 °F 1019.9 in Calm     62 % 0.0 in
19:50 6.3 °F 1.4 °F 1020.9 in West 1.6 mph 1.6 mph 71 % 0.0 in
19:54 8.5 °F 1.6 °F 1019.9 in West 3.7 mph 3.7 mph 62 % 0.0 in
19:59 8.5 °F 1.8 °F 1019.9 in West 1.9 mph 1.9 mph 63 % 0.0 in
20:00 6.3 °F 1.6 °F 1020.9 in Calm   1.6 mph 72 % 0.0 in
20:04 8.6 °F 1.9 °F 1018.8 in Calm     63 % 0.0 in
20:09 8.6 °F 1.9 °F 1018.8 in Calm     63 % 0.0 in
20:10 6.1 °F 1.6 °F 1020.9 in NW 1.6 mph 1.6 mph 73 % 0.0 in
20:14 8.7 °F 2.1 °F 1018.8 in Calm     63 % 0.0 in
20:19 8.8 °F 2.3 °F 1018.8 in Calm     64 % 0.0 in
20:20 6.1 °F 1.6 °F 1020.9 in Calm   1.6 mph 73 % 0.0 in
20:24 8.8 °F 2.3 °F 1018.8 in Calm     64 % 0.0 in
20:29 8.7 °F 2.3 °F 1018.8 in NNE 3.2 mph 3.2 mph 64 % 0.0 in
20:30 5.8 °F 1.1 °F 1020.9 in NNE 3.2 mph 3.2 mph 72 % 0.0 in
20:34 8.5 °F 2.1 °F 1019.9 in NE 3.2 mph 3.2 mph 64 % 0.0 in
20:39 8.4 °F 2.0 °F 1019.9 in NE 2.3 mph 2.3 mph 64 % 0.0 in
20:40 5.7 °F 1.1 °F 1020.9 in Calm   1.6 mph 72 % 0.0 in
20:44 8.3 °F 1.9 °F 1019.9 in Calm     64 % 0.0 in
20:50 5.5 °F 0.7 °F 1020.9 in Calm     71 % 0.0 in
20:54 8.1 °F 1.9 °F 1019.9 in Calm     65 % 0.0 in
20:59 8.1 °F 1.9 °F 1019.9 in Calm     65 % 0.0 in
21:00 5.2 °F 0.4 °F 1020.9 in Calm     71 % 0.0 in
21:04 7.9 °F 1.7 °F 1019.9 in Calm     65 % 0.0 in
21:09 7.8 °F 1.6 °F 1019.9 in Calm     65 % 0.0 in
21:10 5.1 °F 0.3 °F 1020.9 in Calm     71 % 0.0 in
21:14 7.6 °F 1.7 °F 1019.9 in Calm     66 % 0.0 in
21:19 7.4 °F 1.4 °F 1018.8 in NE 1.9 mph   66 % 0.0 in
21:20 4.8 °F 0.2 °F 1020.9 in Calm   1.6 mph 72 % 0.0 in
21:24 7.4 °F 1.7 °F 1018.8 in East 1.9 mph   67 % 0.0 in
21:29 7.2 °F 1.3 °F 1018.8 in SSW 2.3 mph   66 % 0.0 in
21:30 4.8 °F 0.2 °F 1020.9 in Calm   1.6 mph 72 % 0.0 in
21:34 7.0 °F 1.3 °F 1019.9 in SSW 1.9 mph   67 % 0.0 in
21:39 6.9 °F 1.0 °F 1019.9 in Calm     66 % 0.0 in
21:40 4.8 °F 0.2 °F 1020.9 in Calm   3.2 mph 72 % 0.0 in
21:44 6.8 °F 1.1 °F 1019.9 in WSW 3.5 mph 3.5 mph 67 % 0.0 in
21:49 6.7 °F 1.0 °F 1018.8 in WSW 1.9 mph   67 % 0.0 in
21:50 4.8 °F 0.2 °F 1020.9 in Calm     72 % 0.0 in
21:54 6.6 °F 1.1 °F 1018.8 in Calm     68 % 0.0 in
21:59 6.5 °F 1.0 °F 1018.8 in Calm     68 % 0.0 in
22:00 5.0 °F 0.2 °F 1020.9 in WNW 1.6 mph 3.2 mph 71 % 0.0 in
22:04 6.4 °F 0.7 °F 1019.9 in WSW 1.4 mph   67 % 0.0 in
22:09 6.4 °F 0.9 °F 1019.9 in Calm     68 % 0.0 in
22:10 5.0 °F 0.2 °F 1020.9 in WNW 3.2 mph 4.8 mph 71 % 0.0 in
22:14 6.4 °F 0.9 °F 1019.9 in Calm     68 % 0.0 in
22:19 6.3 °F 1.0 °F 1020.9 in Calm     69 % 0.0 in
22:20 5.1 °F 0.3 °F 1020.9 in NW 4.8 mph 6.4 mph 71 % 0.0 in
22:24 6.3 °F 1.0 °F 1020.9 in Calm     69 % 0.0 in
22:29 6.4 °F 1.1 °F 1020.9 in WNW 3.7 mph 3.7 mph 69 % 0.0 in
22:30 5.0 °F 0.2 °F 1020.9 in North 4.8 mph 4.8 mph 71 % 0.0 in
22:34 6.6 °F 1.3 °F 1020.9 in Calm     69 % 0.0 in
22:39 6.7 °F 1.6 °F 1020.9 in Calm     70 % 0.0 in
22:40 5.0 °F 0.0 °F 1020.9 in Calm   6.4 mph 70 % 0.0 in
22:44 6.8 °F 1.7 °F 1020.9 in NNE 3.7 mph 3.7 mph 70 % 0.0 in
22:49 6.9 °F 1.8 °F 1020.9 in ENE 3.2 mph 3.2 mph 70 % 0.0 in
22:50 4.8 °F -0.2 °F 1019.9 in Calm   3.2 mph 70 % 0.0 in
22:54 6.8 °F 1.9 °F 1020.9 in East 1.9 mph   71 % 0.0 in
22:59 6.6 °F 1.5 °F 1020.9 in ENE 3.5 mph 3.5 mph 70 % 0.0 in
23:00 4.7 °F -0.1 °F 1019.9 in NNW 1.6 mph 3.2 mph 71 % 0.0 in
23:04 6.5 °F 1.4 °F 1020.9 in SW 3.7 mph 3.7 mph 70 % 0.0 in
23:09 6.3 °F 1.2 °F 1020.9 in ESE 3.7 mph 3.7 mph 70 % 0.0 in
23:10 4.3 °F -0.7 °F 1020.9 in NW 1.6 mph 4.8 mph 70 % 0.0 in
23:14 6.3 °F 1.2 °F 1020.9 in SW 3.7 mph   70 % 0.0 in
23:19 6.3 °F 1.2 °F 1020.9 in Calm     70 % 0.0 in
23:20 4.7 °F -0.1 °F 1020.9 in NW 1.6 mph 3.2 mph 71 % 0.0 in
23:24 6.3 °F 1.4 °F 1020.9 in Calm     71 % 0.0 in
23:29 6.3 °F 1.2 °F 1020.9 in SW 3.7 mph 3.7 mph 70 % 0.0 in
23:30 4.9 °F 0.3 °F 1020.9 in NNE 1.6 mph 3.2 mph 72 % 0.0 in
23:34 6.2 °F 1.1 °F 1020.9 in SW 3.7 mph 3.7 mph 70 % 0.0 in
23:39 6.2 °F 1.1 °F 1020.9 in SW 3.7 mph 3.7 mph 70 % 0.0 in
23:40 4.9 °F 0.1 °F 1020.9 in NE 1.6 mph 3.2 mph 71 % 0.0 in
23:44 6.4 °F 1.5 °F 1020.9 in SW 3.7 mph 3.7 mph 71 % 0.0 in
23:49 6.5 °F 1.4 °F 1019.9 in WSW 3.7 mph 3.7 mph 70 % 0.0 in
23:50 4.7 °F -0.1 °F 1020.9 in NNE 1.6 mph 4.8 mph 71 % 0.0 in
23:54 6.5 °F 1.6 °F 1019.9 in WSW 3.7 mph 3.7 mph 71 % 0.0 in
23:59 6.6 °F 1.7 °F 1019.9 in SW 3.7 mph   71 % 0.0 in
Meteo Sesrovires
Elogis d' Weather Underground - 3.75 mb

Guio original per  Jim McMurry - jmcmurry@mwt.net Adaptat per a la plantilla per  Wim van der Kuil - Leuven-Template.eu

Trobareu la nostra informacio del temps tambe a:

Weather Underground

AWEKAS